Cayuga, Indiana
Current Conditions -  °F | °C
As of 5:15 AM on Sunday 25 Jan 2015 (Local Time) from KDNV Reporting Station
Scattered Clouds Scattered Clouds  
Wind Chill: 30°   Ceiling: Unl
Heat Index: 34°   Visibility: 10mi
Dew Point: 32°   Wind: 5mph
Humidity: 92%   Direction: 140°SE
Pressure: 29.61"   Gusts: NA
Location:  39.95°N, 87.46°W
Report Text: KDNV 251015Z AUTO 14004KT 10SM SCT090 01/00 A2961 RMK AO2 T00101001
Loading
Personal Weather Stations






























Interactive Weather Map New forecast layout! Learn more

10-Day Weather Forecast

Advertisements
Track Severe Weather on mobile